createdAt,value
2023-03-16T00:00:43.028Z,1009.23
2023-03-16T00:01:43.061Z,1009.24
2023-03-16T00:02:43.100Z,1009.27
2023-03-16T00:03:43.011Z,1009.22
2023-03-16T00:04:43.018Z,1009.23
2023-03-16T00:05:43.028Z,1009.23
2023-03-16T00:06:43.032Z,1009.19
2023-03-16T00:07:43.047Z,1009.2
2023-03-16T00:08:43.021Z,1009.22
2023-03-16T00:09:43.026Z,1009.27
2023-03-16T00:10:43.023Z,1009.25
2023-03-16T00:11:43.014Z,1009.28
2023-03-16T00:12:43.142Z,1009.27
2023-03-16T00:13:43.028Z,1009.3
2023-03-16T00:14:43.040Z,1009.28
2023-03-16T00:15:43.025Z,1009.27
2023-03-16T00:16:43.044Z,1009.27
2023-03-16T00:17:43.045Z,1009.3
2023-03-16T00:18:43.024Z,1009.27
2023-03-16T00:19:43.020Z,1009.28
2023-03-16T00:20:43.021Z,1009.27
2023-03-16T00:21:43.033Z,1009.29
2023-03-16T00:22:43.034Z,1009.29
2023-03-16T00:23:43.055Z,1009.29
2023-03-16T00:24:43.103Z,1009.31
2023-03-16T00:25:43.028Z,1009.27
2023-03-16T00:26:43.040Z,1009.3
2023-03-16T00:27:43.033Z,1009.28
2023-03-16T00:28:43.049Z,1009.29
2023-03-16T00:29:43.029Z,1009.31
2023-03-16T00:30:43.023Z,1009.3
2023-03-16T00:31:43.100Z,1009.33
2023-03-16T00:32:43.129Z,1009.32
2023-03-16T00:33:43.041Z,1009.34
2023-03-16T00:34:43.033Z,1009.32
2023-03-16T00:35:43.058Z,1009.34
2023-03-16T00:36:43.017Z,1009.36
2023-03-16T00:37:43.067Z,1009.32
2023-03-16T00:38:43.051Z,1009.3
2023-03-16T00:39:43.017Z,1009.34
2023-03-16T00:40:43.008Z,1009.35
2023-03-16T00:41:43.130Z,1009.3
2023-03-16T00:42:43.016Z,1009.3
2023-03-16T00:43:43.029Z,1009.21
2023-03-16T00:44:43.342Z,1009.19
2023-03-16T00:45:43.033Z,1009.17
2023-03-16T00:46:43.013Z,1009.15
2023-03-16T00:47:43.014Z,1009.19
2023-03-16T00:48:43.124Z,1009.2
2023-03-16T00:49:43.014Z,1009.18
2023-03-16T00:50:43.015Z,1009.21
2023-03-16T00:51:43.016Z,1009.22
2023-03-16T00:52:43.013Z,1009.2
2023-03-16T00:53:43.038Z,1009.15
2023-03-16T00:54:43.025Z,1009.09
2023-03-16T00:55:43.116Z,1009.04
2023-03-16T00:56:43.454Z,1009.01
2023-03-16T00:57:43.091Z,1009.04
2023-03-16T00:58:43.091Z,1009.03
2023-03-16T00:59:43.017Z,1009.02
2023-03-16T01:00:43.017Z,1009.04
2023-03-16T01:01:43.178Z,1009.06
2023-03-16T01:02:43.007Z,1009.03
2023-03-16T01:03:43.057Z,1009.03
2023-03-16T01:04:43.106Z,1009
2023-03-16T01:05:43.289Z,1009.01
2023-03-16T01:06:43.036Z,1008.95
2023-03-16T01:07:43.020Z,1008.98
2023-03-16T01:08:43.126Z,1008.96
2023-03-16T01:09:43.038Z,1008.97
2023-03-16T01:10:43.135Z,1008.98
2023-03-16T01:11:43.020Z,1009.03
2023-03-16T01:12:43.260Z,1008.95
2023-03-16T01:13:43.065Z,1008.99
2023-03-16T01:14:43.229Z,1008.96
2023-03-16T01:15:43.261Z,1009.02
2023-03-16T01:16:43.144Z,1008.98
2023-03-16T01:17:43.026Z,1008.93
2023-03-16T01:18:43.304Z,1008.95
2023-03-16T01:19:43.389Z,1008.93
2023-03-16T01:20:43.212Z,1008.97
2023-03-16T01:21:43.495Z,1008.94
2023-03-16T01:22:43.213Z,1008.93
2023-03-16T01:23:43.339Z,1008.91
2023-03-16T01:24:43.670Z,1008.93
2023-03-16T01:25:43.604Z,1008.9
2023-03-16T01:26:43.482Z,1008.9
2023-03-16T01:27:43.321Z,1008.9
2023-03-16T01:28:43.436Z,1008.93
2023-03-16T01:29:43.291Z,1008.88
2023-03-16T01:30:43.081Z,1008.92
2023-03-16T01:31:43.371Z,1008.91
2023-03-16T01:32:43.508Z,1008.93
2023-03-16T01:33:43.008Z,1008.96
2023-03-16T01:34:43.163Z,1008.97
2023-03-16T01:35:43.045Z,1008.95
2023-03-16T01:36:43.262Z,1008.96
2023-03-16T01:37:43.013Z,1008.92
2023-03-16T01:38:43.265Z,1008.93
2023-03-16T01:39:43.011Z,1008.89
2023-03-16T01:40:43.390Z,1008.9
2023-03-16T01:41:43.021Z,1008.87
2023-03-16T01:42:43.015Z,1008.85
2023-03-16T01:43:43.014Z,1008.79
2023-03-16T01:44:43.025Z,1008.72
2023-03-16T01:45:43.017Z,1008.72
2023-03-16T01:46:43.031Z,1008.67
2023-03-16T01:47:43.110Z,1008.67
2023-03-16T01:48:43.007Z,1008.64
2023-03-16T01:49:43.020Z,1008.62
2023-03-16T01:50:43.008Z,1008.63
2023-03-16T01:51:43.097Z,1008.63
2023-03-16T01:52:43.065Z,1008.58
2023-03-16T01:53:43.008Z,1008.6
2023-03-16T01:54:43.014Z,1008.62
2023-03-16T01:55:43.011Z,1008.55
2023-03-16T01:56:43.137Z,1008.51
2023-03-16T01:57:43.026Z,1008.46
2023-03-16T01:58:43.016Z,1008.39
2023-03-16T01:59:43.045Z,1008.34
2023-03-16T02:00:43.246Z,1008.35
2023-03-16T02:01:43.047Z,1008.36
2023-03-16T02:02:43.021Z,1008.35
2023-03-16T02:03:43.084Z,1008.35
2023-03-16T02:04:43.410Z,1008.35
2023-03-16T02:05:43.018Z,1008.32
2023-03-16T02:06:43.048Z,1008.31
2023-03-16T02:07:43.080Z,1008.29
2023-03-16T02:08:43.033Z,1008.27
2023-03-16T02:09:43.027Z,1008.26
2023-03-16T02:10:43.015Z,1008.25
2023-03-16T02:11:43.032Z,1008.19
2023-03-16T02:12:43.016Z,1008.2
2023-03-16T02:13:43.027Z,1008.14
2023-03-16T02:14:43.008Z,1008.17
2023-03-16T02:15:43.047Z,1008.07
2023-03-16T02:16:43.056Z,1008.09
2023-03-16T02:17:43.021Z,1008.03
2023-03-16T02:18:43.010Z,1008
2023-03-16T02:19:43.020Z,1008.02
2023-03-16T02:20:43.027Z,1007.99
2023-03-16T02:21:43.016Z,1007.96
2023-03-16T02:22:43.100Z,1007.92
2023-03-16T02:23:43.014Z,1007.99
2023-03-16T02:24:43.016Z,1007.92
2023-03-16T02:25:43.016Z,1007.91
2023-03-16T02:26:43.025Z,1007.94
2023-03-16T02:27:43.014Z,1007.98
2023-03-16T02:28:43.014Z,1008
2023-03-16T02:29:43.025Z,1007.96
2023-03-16T02:30:43.057Z,1007.97
2023-03-16T02:31:43.046Z,1008.01
2023-03-16T02:32:43.040Z,1008.01
2023-03-16T02:33:43.087Z,1007.96
2023-03-16T02:34:43.027Z,1007.95
2023-03-16T02:35:43.068Z,1007.95
2023-03-16T02:36:43.022Z,1007.9
2023-03-16T02:37:43.030Z,1007.93
2023-03-16T02:38:43.038Z,1007.94
2023-03-16T02:39:43.015Z,1007.96
2023-03-16T02:40:43.022Z,1007.99
2023-03-16T02:41:43.022Z,1008.01
2023-03-16T02:42:43.011Z,1007.96
2023-03-16T02:43:43.005Z,1008.02
2023-03-16T02:44:43.005Z,1007.95
2023-03-16T02:45:43.015Z,1007.93
2023-03-16T02:46:43.027Z,1007.99
2023-03-16T02:47:43.024Z,1007.99
2023-03-16T02:48:43.025Z,1008.06
2023-03-16T02:49:43.042Z,1008.07
2023-03-16T02:50:43.018Z,1008.04
2023-03-16T02:51:43.013Z,1008.06
2023-03-16T02:52:43.017Z,1008.09
2023-03-16T02:53:43.014Z,1008.14
2023-03-16T02:54:43.006Z,1008.09
2023-03-16T02:55:43.023Z,1008.03
2023-03-16T02:56:43.051Z,1007.98
2023-03-16T02:57:43.049Z,1007.96
2023-03-16T02:58:43.018Z,1007.9
2023-03-16T02:59:43.041Z,1007.95
2023-03-16T03:00:43.030Z,1007.95
2023-03-16T03:01:43.014Z,1007.94
2023-03-16T03:02:43.011Z,1007.92
2023-03-16T03:03:43.017Z,1007.92
2023-03-16T03:04:43.018Z,1007.88
2023-03-16T03:05:43.012Z,1007.86
2023-03-16T03:06:43.014Z,1007.82
2023-03-16T03:07:43.010Z,1007.84
2023-03-16T03:08:43.007Z,1007.8
2023-03-16T03:09:43.020Z,1007.8
2023-03-16T03:10:43.015Z,1007.76
2023-03-16T03:11:43.009Z,1007.78
2023-03-16T03:12:43.004Z,1007.82
2023-03-16T03:13:43.133Z,1007.83
2023-03-16T03:14:43.383Z,1007.85
2023-03-16T03:15:43.345Z,1007.77
2023-03-16T03:16:42.620Z,1007.81
2023-03-16T03:17:42.922Z,1007.75
2023-03-16T03:18:43.176Z,1007.81
2023-03-16T03:19:42.452Z,1007.88
2023-03-16T03:20:42.732Z,1007.85
2023-03-16T03:21:43.007Z,1007.9
2023-03-16T03:22:43.293Z,1007.88
2023-03-16T03:23:42.767Z,1007.89
2023-03-16T03:24:43.025Z,1007.88
2023-03-16T03:25:43.367Z,1007.87
2023-03-16T03:26:43.014Z,1007.91
2023-03-16T03:27:43.250Z,1007.92
2023-03-16T03:28:43.043Z,1007.94
2023-03-16T03:29:43.007Z,1007.88
2023-03-16T03:30:43.012Z,1007.91
2023-03-16T03:31:43.137Z,1007.9
2023-03-16T03:32:43.040Z,1007.92
2023-03-16T03:33:43.036Z,1007.86
2023-03-16T03:34:43.025Z,1007.86
2023-03-16T03:35:43.051Z,1007.83
2023-03-16T03:36:43.015Z,1007.85
2023-03-16T03:37:43.004Z,1007.83
2023-03-16T03:38:43.019Z,1007.82
2023-03-16T03:39:43.019Z,1007.84
2023-03-16T03:40:43.008Z,1007.85
2023-03-16T03:41:43.026Z,1007.82
2023-03-16T03:42:43.009Z,1007.83
2023-03-16T03:43:43.015Z,1007.81
2023-03-16T03:44:43.021Z,1007.79
2023-03-16T03:45:43.044Z,1007.79
2023-03-16T03:46:43.145Z,1007.76
2023-03-16T03:47:43.011Z,1007.81
2023-03-16T03:48:43.043Z,1007.8
2023-03-16T03:49:43.015Z,1007.77
2023-03-16T03:50:43.034Z,1007.77
2023-03-16T03:51:43.008Z,1007.79
2023-03-16T03:52:43.075Z,1007.8
2023-03-16T03:53:43.231Z,1007.79
2023-03-16T03:54:43.276Z,1007.76
2023-03-16T03:55:43.294Z,1007.72
2023-03-16T03:56:43.383Z,1007.72
2023-03-16T03:57:43.358Z,1007.76
2023-03-16T03:58:43.521Z,1007.74
2023-03-16T03:59:43.014Z,1007.72
2023-03-16T04:00:43.071Z,1007.72
2023-03-16T04:01:43.042Z,1007.69
2023-03-16T04:02:43.232Z,1007.63
2023-03-16T04:03:47.031Z,1007.62
2023-03-16T04:04:43.018Z,1007.61
2023-03-16T04:05:43.012Z,1007.62
2023-03-16T04:06:43.015Z,1007.62
2023-03-16T04:07:43.024Z,1007.59
2023-03-16T04:08:43.029Z,1007.59
2023-03-16T04:09:43.026Z,1007.58
2023-03-16T04:10:43.226Z,1007.6
2023-03-16T04:11:43.112Z,1007.62
2023-03-16T04:12:43.017Z,1007.59
2023-03-16T04:13:43.005Z,1007.61
2023-03-16T04:14:43.258Z,1007.55
2023-03-16T04:15:43.024Z,1007.5
2023-03-16T04:16:43.135Z,1007.51
2023-03-16T04:17:43.052Z,1007.45
2023-03-16T04:18:43.030Z,1007.51
2023-03-16T04:19:43.014Z,1007.5
2023-03-16T04:20:43.009Z,1007.47
2023-03-16T04:21:43.016Z,1007.49
2023-03-16T04:22:43.021Z,1007.46
2023-03-16T04:23:43.016Z,1007.44
2023-03-16T04:24:43.011Z,1007.47
2023-03-16T04:25:43.013Z,1007.47
2023-03-16T04:26:43.018Z,1007.46
2023-03-16T04:27:43.104Z,1007.45
2023-03-16T04:28:43.024Z,1007.48
2023-03-16T04:29:43.119Z,1007.47
2023-03-16T04:30:43.085Z,1007.43
2023-03-16T04:31:43.280Z,1007.48
2023-03-16T04:32:43.478Z,1007.45
2023-03-16T04:33:43.389Z,1007.39
2023-03-16T04:34:43.016Z,1007.42
2023-03-16T04:35:43.256Z,1007.37
2023-03-16T04:36:43.509Z,1007.42
2023-03-16T04:37:43.540Z,1007.46
2023-03-16T04:38:43.122Z,1007.4
2023-03-16T04:39:43.341Z,1007.43
2023-03-16T04:40:43.094Z,1007.4
2023-03-16T04:41:43.039Z,1007.37
2023-03-16T04:42:43.219Z,1007.37
2023-03-16T04:43:43.452Z,1007.41
2023-03-16T04:44:43.761Z,1007.41
2023-03-16T04:45:44.041Z,1007.35
2023-03-16T04:46:43.231Z,1007.43
2023-03-16T04:47:43.341Z,1007.38
2023-03-16T04:48:43.197Z,1007.37
2023-03-16T04:49:43.335Z,1007.33
2023-03-16T04:50:43.452Z,1007.31
2023-03-16T04:51:43.026Z,1007.36
2023-03-16T04:52:43.278Z,1007.34
2023-03-16T04:53:43.116Z,1007.38
2023-03-16T04:54:43.284Z,1007.34
2023-03-16T04:55:43.121Z,1007.36
2023-03-16T04:56:43.406Z,1007.34
2023-03-16T04:57:43.476Z,1007.29
2023-03-16T04:58:43.014Z,1007.24
2023-03-16T04:59:44.016Z,1007.26
2023-03-16T05:00:43.022Z,1007.26
2023-03-16T05:01:43.355Z,1007.33
2023-03-16T05:02:43.041Z,1007.36
2023-03-16T05:03:43.283Z,1007.35
2023-03-16T05:04:43.102Z,1007.32
2023-03-16T05:05:43.072Z,1007.3
2023-03-16T05:06:43.096Z,1007.31
2023-03-16T05:07:43.043Z,1007.29
2023-03-16T05:08:43.202Z,1007.28
2023-03-16T05:09:43.076Z,1007.26
2023-03-16T05:10:43.214Z,1007.29
2023-03-16T05:11:43.037Z,1007.24
2023-03-16T05:12:43.285Z,1007.22
2023-03-16T05:13:43.538Z,1007.24
2023-03-16T05:14:43.292Z,1007.24
2023-03-16T05:15:43.044Z,1007.26
2023-03-16T05:16:43.017Z,1007.25
2023-03-16T05:17:43.094Z,1007.28
2023-03-16T05:18:43.007Z,1007.25
2023-03-16T05:19:43.011Z,1007.29
2023-03-16T05:20:43.019Z,1007.28
2023-03-16T05:21:43.051Z,1007.3
2023-03-16T05:22:43.025Z,1007.26
2023-03-16T05:23:43.048Z,1007.19
2023-03-16T05:24:43.017Z,1007.26
2023-03-16T05:25:43.973Z,1007.18
2023-03-16T05:26:43.109Z,1007.16
2023-03-16T05:27:43.090Z,1007.1
2023-03-16T05:28:43.114Z,1007.06
2023-03-16T05:29:43.017Z,1007.04
2023-03-16T05:30:43.007Z,1006.98
2023-03-16T05:31:43.183Z,1006.98
2023-03-16T05:32:43.074Z,1007.03
2023-03-16T05:33:43.011Z,1006.98
2023-03-16T05:34:43.019Z,1007
2023-03-16T05:35:43.340Z,1006.96
2023-03-16T05:36:43.003Z,1007.04
2023-03-16T05:37:43.066Z,1006.97
2023-03-16T05:38:43.150Z,1007.03
2023-03-16T05:39:43.042Z,1007.03
2023-03-16T05:40:43.010Z,1007.03
2023-03-16T05:41:43.012Z,1007.08
2023-03-16T05:42:43.017Z,1006.99
2023-03-16T05:43:43.020Z,1007.09
2023-03-16T05:44:43.019Z,1007.02
2023-03-16T05:45:43.032Z,1007.01
2023-03-16T05:46:43.073Z,1007.02
2023-03-16T05:47:43.017Z,1006.99
2023-03-16T05:48:43.024Z,1006.97
2023-03-16T05:49:43.017Z,1006.96
2023-03-16T05:50:43.017Z,1006.94
2023-03-16T05:51:43.056Z,1006.96
2023-03-16T05:52:43.029Z,1006.92
2023-03-16T05:53:43.028Z,1006.96
2023-03-16T05:54:43.207Z,1006.93
2023-03-16T05:55:43.042Z,1006.98
2023-03-16T05:56:43.021Z,1006.95
2023-03-16T05:57:43.016Z,1006.91
2023-03-16T05:58:43.020Z,1006.94
2023-03-16T05:59:43.013Z,1006.92
2023-03-16T06:00:43.023Z,1006.87
2023-03-16T06:01:43.020Z,1006.89
2023-03-16T06:02:43.060Z,1006.94
2023-03-16T06:03:43.060Z,1006.97
2023-03-16T06:04:43.226Z,1006.98
2023-03-16T06:05:43.013Z,1007.03
2023-03-16T06:06:43.186Z,1007.03
2023-03-16T06:07:43.065Z,1006.98
2023-03-16T06:08:43.162Z,1006.94
2023-03-16T06:09:43.230Z,1006.96
2023-03-16T06:10:43.021Z,1006.96
2023-03-16T06:11:43.018Z,1006.99
2023-03-16T06:12:43.005Z,1006.95
2023-03-16T06:13:43.020Z,1006.9
2023-03-16T06:14:43.006Z,1006.94
2023-03-16T06:15:43.014Z,1006.9
2023-03-16T06:16:43.076Z,1006.9
2023-03-16T06:17:43.033Z,1006.95
2023-03-16T06:18:43.022Z,1006.88
2023-03-16T06:19:43.021Z,1006.87
2023-03-16T06:20:43.026Z,1006.89
2023-03-16T06:21:43.061Z,1006.82
2023-03-16T06:22:43.029Z,1006.89
2023-03-16T06:23:43.022Z,1006.86
2023-03-16T06:24:43.023Z,1006.83
2023-03-16T06:25:43.028Z,1006.88
2023-03-16T06:26:43.113Z,1006.83
2023-03-16T06:27:43.058Z,1006.79
2023-03-16T06:28:43.109Z,1006.78
2023-03-16T06:29:43.024Z,1006.73
2023-03-16T06:30:43.015Z,1006.79
2023-03-16T06:31:43.050Z,1006.82
2023-03-16T06:32:43.115Z,1006.73
2023-03-16T06:33:43.014Z,1006.71
2023-03-16T06:34:43.019Z,1006.76
2023-03-16T06:35:43.065Z,1006.72
2023-03-16T06:36:43.027Z,1006.73
2023-03-16T06:37:43.041Z,1006.82
2023-03-16T06:38:43.007Z,1006.76
2023-03-16T06:39:43.224Z,1006.75
2023-03-16T06:40:43.214Z,1006.75
2023-03-16T06:41:43.155Z,1006.76
2023-03-16T06:42:44.671Z,1006.84
2023-03-16T06:43:43.332Z,1006.8
2023-03-16T06:44:43.236Z,1006.76
2023-03-16T06:45:43.354Z,1006.77
2023-03-16T06:46:44.557Z,1006.72
2023-03-16T06:47:43.237Z,1006.74
2023-03-16T06:48:43.442Z,1006.74
2023-03-16T06:49:43.730Z,1006.69
2023-03-16T06:50:43.727Z,1006.62
2023-03-16T06:51:42.698Z,1006.7
2023-03-16T06:52:42.880Z,1006.67
2023-03-16T06:53:43.152Z,1006.67
2023-03-16T06:54:42.908Z,1006.66
2023-03-16T06:55:42.710Z,1006.69
2023-03-16T06:56:43.950Z,1006.71
2023-03-16T06:57:43.291Z,1006.79
2023-03-16T06:58:42.794Z,1006.75
2023-03-16T06:59:43.025Z,1006.74
2023-03-16T07:00:43.369Z,1006.68
2023-03-16T07:01:43.667Z,1006.7
2023-03-16T07:02:43.192Z,1006.73
2023-03-16T07:03:43.480Z,1006.76
2023-03-16T07:04:43.360Z,1006.69
2023-03-16T07:05:43.028Z,1006.7
2023-03-16T07:06:43.021Z,1006.71
2023-03-16T07:07:43.041Z,1006.69
2023-03-16T07:08:43.032Z,1006.71
2023-03-16T07:09:44.015Z,1006.73
2023-03-16T07:10:43.060Z,1006.69
2023-03-16T07:11:43.017Z,1006.6
2023-03-16T07:12:43.076Z,1006.67
2023-03-16T07:13:43.025Z,1006.6
2023-03-16T07:14:43.084Z,1006.66
2023-03-16T07:15:43.086Z,1006.59
2023-03-16T07:16:43.115Z,1006.7
2023-03-16T07:17:43.199Z,1006.72
2023-03-16T07:18:43.217Z,1006.65
2023-03-16T07:19:43.243Z,1006.73
2023-03-16T07:20:43.387Z,1006.64
2023-03-16T07:21:43.027Z,1006.65
2023-03-16T07:22:43.036Z,1006.68
2023-03-16T07:23:43.067Z,1006.62
2023-03-16T07:24:43.017Z,1006.57
2023-03-16T07:25:43.027Z,1006.69
2023-03-16T07:26:43.035Z,1006.63
2023-03-16T07:27:43.037Z,1006.63
2023-03-16T07:28:43.358Z,1006.66
2023-03-16T07:29:43.096Z,1006.61
2023-03-16T07:31:02.783Z,1006.7
2023-03-16T07:31:43.066Z,1006.68
2023-03-16T07:32:43.064Z,1006.71
2023-03-16T07:33:43.018Z,1006.75
2023-03-16T07:34:43.290Z,1006.79
2023-03-16T07:35:43.255Z,1006.82
2023-03-16T07:36:43.013Z,1006.75
2023-03-16T07:37:43.269Z,1006.79
2023-03-16T07:38:43.020Z,1006.85
2023-03-16T07:39:43.008Z,1006.84
2023-03-16T07:40:43.067Z,1006.78
2023-03-16T07:41:43.019Z,1007.02
2023-03-16T07:42:43.148Z,1006.88
2023-03-16T07:43:43.032Z,1006.84
2023-03-16T07:44:43.009Z,1006.9
2023-03-16T07:45:43.068Z,1007.02
2023-03-16T07:46:43.022Z,1006.93
2023-03-16T07:47:43.020Z,1006.9
2023-03-16T07:48:43.027Z,1006.88
2023-03-16T07:49:43.005Z,1006.93
2023-03-16T07:50:43.042Z,1006.96
2023-03-16T07:51:43.022Z,1006.95
2023-03-16T07:52:43.031Z,1006.87
2023-03-16T07:53:43.079Z,1006.94
2023-03-16T07:54:43.014Z,1006.94
2023-03-16T07:55:43.058Z,1006.87
2023-03-16T07:56:50.413Z,1006.89
2023-03-16T07:57:43.025Z,1006.9
2023-03-16T07:58:43.041Z,1006.94
2023-03-16T07:59:43.023Z,1006.91
2023-03-16T08:00:43.032Z,1006.77
2023-03-16T08:01:43.018Z,1006.92
2023-03-16T08:02:43.132Z,1006.89
2023-03-16T08:03:43.143Z,1006.88
2023-03-16T08:04:43.024Z,1006.85
2023-03-16T08:05:43.016Z,1006.87
2023-03-16T08:06:43.452Z,1006.88
2023-03-16T08:07:43.524Z,1006.81
2023-03-16T08:08:43.376Z,1006.85
2023-03-16T08:09:43.222Z,1006.81
2023-03-16T08:10:43.354Z,1006.77
2023-03-16T08:11:43.086Z,1006.79
2023-03-16T08:12:43.067Z,1006.78
2023-03-16T08:13:43.206Z,1006.83
2023-03-16T08:14:43.442Z,1006.8
2023-03-16T08:15:43.235Z,1006.76
2023-03-16T08:16:43.048Z,1006.85
2023-03-16T08:17:43.297Z,1006.76
2023-03-16T08:18:43.544Z,1006.77
2023-03-16T08:19:43.801Z,1006.87
2023-03-16T08:20:43.057Z,1006.81
2023-03-16T08:22:00.912Z,1006.76
2023-03-16T08:22:43.015Z,1006.78
2023-03-16T08:23:43.032Z,1006.76
2023-03-16T08:24:43.035Z,1006.77
2023-03-16T08:26:43.016Z,1006.72
2023-03-16T08:27:43.380Z,1006.82
2023-03-16T08:28:43.044Z,1006.84
2023-03-16T08:29:43.023Z,1006.8
2023-03-16T08:30:43.028Z,1006.77
2023-03-16T08:31:43.111Z,1006.8
2023-03-16T08:32:43.121Z,1006.76
2023-03-16T08:33:43.163Z,1006.77
2023-03-16T08:34:43.133Z,1006.82
2023-03-16T08:35:43.066Z,1006.77
2023-03-16T08:36:43.086Z,1006.76
2023-03-16T08:37:43.022Z,1006.79
2023-03-16T08:38:44.122Z,1006.82
2023-03-16T08:39:43.014Z,1006.79
2023-03-16T08:40:43.198Z,1006.76
2023-03-16T08:41:43.062Z,1006.81
2023-03-16T08:42:43.210Z,1006.79
2023-03-16T08:43:43.023Z,1006.73
2023-03-16T08:44:43.299Z,1006.73
2023-03-16T08:45:43.024Z,1006.78
2023-03-16T08:46:43.145Z,1006.77
2023-03-16T08:47:43.119Z,1006.75
2023-03-16T08:48:43.299Z,1006.77
2023-03-16T08:49:43.139Z,1006.79
2023-03-16T08:50:43.029Z,1006.73
2023-03-16T08:51:45.267Z,1006.77
2023-03-16T08:52:43.118Z,1006.86
2023-03-16T08:53:43.021Z,1006.84
2023-03-16T08:55:02.193Z,1006.84
2023-03-16T08:55:43.031Z,1006.89
2023-03-16T08:56:43.030Z,1006.86
2023-03-16T08:57:43.028Z,1006.91
2023-03-16T08:58:43.013Z,1006.87
2023-03-16T08:59:43.021Z,1006.86
2023-03-16T09:00:44.910Z,1006.87
2023-03-16T09:01:43.090Z,1006.89
2023-03-16T09:02:43.021Z,1006.89
2023-03-16T09:03:43.790Z,1006.89
2023-03-16T09:04:43.106Z,1006.86
2023-03-16T09:05:43.045Z,1006.88
2023-03-16T09:06:43.078Z,1006.88
2023-03-16T09:07:43.133Z,1006.92
2023-03-16T09:08:43.027Z,1006.9
2023-03-16T09:09:43.019Z,1006.94
2023-03-16T09:10:43.183Z,1006.93
2023-03-16T09:11:43.033Z,1006.88
2023-03-16T09:12:43.047Z,1006.9
2023-03-16T09:13:43.022Z,1006.91
2023-03-16T09:14:43.293Z,1006.95
2023-03-16T09:15:43.015Z,1006.92
2023-03-16T09:16:43.253Z,1006.86
2023-03-16T09:17:43.031Z,1006.9
2023-03-16T09:18:43.193Z,1006.84
2023-03-16T09:19:51.905Z,1006.87
2023-03-16T09:20:43.300Z,1006.86
2023-03-16T09:21:43.139Z,1006.85
2023-03-16T09:22:43.359Z,1006.99
2023-03-16T09:23:43.186Z,1006.84
2023-03-16T09:24:43.273Z,1006.92
2023-03-16T09:25:43.226Z,1006.91
2023-03-16T09:26:43.309Z,1006.87
2023-03-16T09:27:43.260Z,1006.91
2023-03-16T09:28:43.066Z,1006.91
2023-03-16T09:29:43.180Z,1006.92
2023-03-16T09:30:43.018Z,1006.81
2023-03-16T09:31:43.354Z,1006.9
2023-03-16T09:32:43.281Z,1006.89
2023-03-16T09:33:43.039Z,1006.85
2023-03-16T09:34:43.028Z,1006.85
2023-03-16T09:35:43.085Z,1006.84
2023-03-16T09:36:43.103Z,1006.9
2023-03-16T09:38:05.007Z,1006.77
2023-03-16T09:38:43.021Z,1006.85
2023-03-16T09:39:43.016Z,1006.9
2023-03-16T09:40:43.031Z,1006.87
2023-03-16T09:41:43.017Z,1006.83
2023-03-16T09:42:43.015Z,1006.88
2023-03-16T09:43:43.019Z,1006.91
2023-03-16T09:44:43.008Z,1006.87
2023-03-16T09:45:43.047Z,1006.87
2023-03-16T09:46:43.038Z,1006.86
2023-03-16T09:47:43.008Z,1006.84
2023-03-16T09:48:43.129Z,1006.89
2023-03-16T09:49:43.023Z,1006.85
2023-03-16T09:50:50.810Z,1006.85
2023-03-16T09:51:43.028Z,1006.88
2023-03-16T09:52:43.012Z,1006.93
2023-03-16T09:53:43.984Z,1006.94
2023-03-16T09:54:43.032Z,1006.92
2023-03-16T09:55:43.012Z,1006.99
2023-03-16T09:56:43.021Z,1006.94
2023-03-16T09:57:43.038Z,1006.95
2023-03-16T09:58:43.021Z,1006.98
2023-03-16T09:59:43.013Z,1006.96
2023-03-16T10:00:43.088Z,1006.95
2023-03-16T10:01:43.012Z,1006.96
2023-03-16T10:02:43.018Z,1006.96
2023-03-16T10:03:43.108Z,1006.99
2023-03-16T10:04:46.230Z,1006.95
2023-03-16T10:05:43.010Z,1007
2023-03-16T10:06:43.010Z,1006.99
2023-03-16T10:07:43.005Z,1007
2023-03-16T10:08:43.033Z,1006.96
2023-03-16T10:09:43.353Z,1007
2023-03-16T10:10:43.007Z,1007
2023-03-16T10:11:43.026Z,1007.01
2023-03-16T10:12:43.005Z,1007
2023-03-16T10:13:43.009Z,1006.98
2023-03-16T10:14:43.150Z,1007.01
2023-03-16T10:15:43.027Z,1007.04
2023-03-16T10:16:43.051Z,1007.02
2023-03-16T10:17:43.016Z,1006.99
2023-03-16T10:18:43.111Z,1007.02
2023-03-16T10:19:43.015Z,1007.07
2023-03-16T10:20:43.229Z,1007
2023-03-16T10:21:43.026Z,1007
2023-03-16T10:22:43.003Z,1007.01
2023-03-16T10:23:45.096Z,1006.95
2023-03-16T10:24:43.202Z,1006.92
2023-03-16T10:25:43.516Z,1006.91
2023-03-16T10:26:42.449Z,1006.93
2023-03-16T10:27:42.719Z,1006.89
2023-03-16T10:28:43.018Z,1006.9
2023-03-16T10:29:43.288Z,1006.88
2023-03-16T10:30:44.553Z,1006.89
2023-03-16T10:31:42.891Z,1006.92
2023-03-16T10:32:43.239Z,1006.93
2023-03-16T10:33:43.401Z,1006.9
2023-03-16T10:34:42.866Z,1006.95
2023-03-16T10:35:43.102Z,1006.9
2023-03-16T10:36:43.484Z,1006.97
2023-03-16T10:37:43.124Z,1006.99
2023-03-16T10:38:43.331Z,1007
2023-03-16T10:39:43.119Z,1007.04
2023-03-16T10:40:43.005Z,1007.01
2023-03-16T10:41:43.009Z,1006.97
2023-03-16T10:42:43.090Z,1006.99
2023-03-16T10:43:43.016Z,1006.9
2023-03-16T10:44:43.023Z,1006.92
2023-03-16T10:45:43.124Z,1006.9
2023-03-16T10:46:43.128Z,1006.91
2023-03-16T10:47:43.249Z,1006.96
2023-03-16T10:48:43.030Z,1006.92
2023-03-16T10:49:43.025Z,1006.93
2023-03-16T10:50:43.014Z,1006.92
2023-03-16T10:51:43.016Z,1006.9
2023-03-16T10:52:43.062Z,1006.88
2023-03-16T10:53:43.007Z,1006.88
2023-03-16T10:54:43.030Z,1006.81
2023-03-16T10:55:43.016Z,1006.83
2023-03-16T10:56:43.023Z,1006.8
2023-03-16T10:57:43.090Z,1006.81
2023-03-16T10:58:43.032Z,1006.79
2023-03-16T10:59:43.034Z,1006.85
2023-03-16T11:00:43.174Z,1006.85
2023-03-16T11:01:43.052Z,1006.86
2023-03-16T11:02:43.024Z,1006.77
2023-03-16T11:03:43.029Z,1006.77
2023-03-16T11:04:43.073Z,1006.77
2023-03-16T11:05:43.024Z,1006.79
2023-03-16T11:06:43.015Z,1006.74
2023-03-16T11:07:43.023Z,1006.78
2023-03-16T11:08:43.018Z,1006.75
2023-03-16T11:09:43.038Z,1006.75
2023-03-16T11:10:55.809Z,1006.78
2023-03-16T11:11:43.037Z,1006.78
2023-03-16T11:12:43.050Z,1006.82
2023-03-16T11:13:43.029Z,1006.81
2023-03-16T11:14:43.020Z,1006.78
2023-03-16T11:15:43.025Z,1006.77
2023-03-16T11:16:43.129Z,1006.77
2023-03-16T11:17:43.026Z,1006.73
2023-03-16T11:18:43.062Z,1006.69
2023-03-16T11:19:43.041Z,1006.69
2023-03-16T11:20:43.021Z,1006.7
2023-03-16T11:21:43.030Z,1006.64
2023-03-16T11:22:43.113Z,1006.64
2023-03-16T11:23:43.025Z,1006.65
2023-03-16T11:24:43.031Z,1006.57
2023-03-16T11:25:43.044Z,1006.59
2023-03-16T11:26:43.029Z,1006.58
2023-03-16T11:27:43.026Z,1006.58
2023-03-16T11:28:43.186Z,1006.57
2023-03-16T11:29:43.107Z,1006.56
2023-03-16T11:30:43.089Z,1006.53
2023-03-16T11:31:43.052Z,1006.48
2023-03-16T11:32:43.095Z,1006.48
2023-03-16T11:33:43.023Z,1006.48
2023-03-16T11:34:43.030Z,1006.47
2023-03-16T11:35:58.591Z,1006.52
2023-03-16T11:36:43.016Z,1006.49
2023-03-16T11:37:43.079Z,1006.46
2023-03-16T11:38:43.066Z,1006.43
2023-03-16T11:39:43.126Z,1006.42
2023-03-16T11:40:43.127Z,1006.36
2023-03-16T11:41:43.070Z,1006.39
2023-03-16T11:42:43.020Z,1006.44
2023-03-16T11:43:43.025Z,1006.4
2023-03-16T11:44:43.217Z,1006.4
2023-03-16T11:45:43.084Z,1006.43
2023-03-16T11:46:43.030Z,1006.36
2023-03-16T11:47:43.051Z,1006.3
2023-03-16T11:48:43.029Z,1006.34
2023-03-16T11:49:43.031Z,1006.36
2023-03-16T11:50:43.018Z,1006.32
2023-03-16T11:51:46.169Z,1006.28
2023-03-16T11:52:43.023Z,1006.33
2023-03-16T11:53:43.063Z,1006.35
2023-03-16T11:54:43.017Z,1006.36
2023-03-16T11:55:43.026Z,1006.37
2023-03-16T11:56:43.124Z,1006.38
2023-03-16T11:57:43.033Z,1006.35
2023-03-16T11:58:43.015Z,1006.35
2023-03-16T12:00:00.515Z,1006.3
2023-03-16T12:00:43.017Z,1006.22
2023-03-16T12:01:59.910Z,1006.17
2023-03-16T12:02:43.091Z,1006.1
2023-03-16T12:03:43.024Z,1006.1
2023-03-16T12:04:43.010Z,1006.03
2023-03-16T12:05:45.045Z,1006.03
2023-03-16T12:06:43.018Z,1005.97
2023-03-16T12:07:43.009Z,1005.93
2023-03-16T12:08:43.162Z,1005.91
2023-03-16T12:09:43.018Z,1005.87